Blenker, WI (54415)

2:05 AM CDT on August 29, 2016 (GMT -0500)
Blenker, WI | | Change Station

Elev 1191 ft 44.63 °N, 89.91 °W | Updated 29 seconds ago

Mostly Cloudy
Mostly Cloudy
66.2 °F
Feels Like 66.2 °F
N
0.4
Wind Variable Wind from SW
Gusts 2.5 mph

Today
High -- | Low -- °F
--% Chance of Precip.
Yesterday
High -- | Low -- °F
Precip. -- in
Pressure 30.20 in
Visibility 6.0 miles
Clouds Mostly Cloudy 3400 ft
Dew Point 66 °F
Humidity 99%
Rainfall 0.00 in
Snow Depth Not available.
6:19 AM 7:40 PM
Waning Crescent, 10% visible
METAR KMFI 290654Z AUTO 12004KT 6SM BR BKN034 18/17 A3021 RMK AO2 SLP226 T01830167
Pressure 30.20 in
Visibility 6.0 miles
Clouds Mostly Cloudy 3400 ft
Dew Point 66 °F
Humidity 99%
Rainfall 0.00 in
Snow Depth Not available.
6:19 AM 7:40 PM
Waning Crescent, 10% visible
METAR KMFI 290654Z AUTO 12004KT 6SM BR BKN034 18/17 A3021 RMK AO2 SLP226 T01830167

10-Day Weather Forecast

Almanac

Astronomy

Aug. 29, 2016 Rise Set
Actual Time
Civil Twilight
Nautical Twilight
Astronomical Twilight
Moon
Length of Visible Light
Length of Day
Tomorrow will be .
, % of the Moon is Illuminated

Today's Extremes

State Highs State Lows

Community

WunderPhotos

Upload Photos

1,935,800 photos uploaded!

WunderBlog® & News

Nearby

Air Quality

  Air Quality AQ Index Pollutant
Not available.

Snow Depth

Station Depth Elevation

Earthquake Activity

City Distance Mag. Time & Date
Minimum magnitude displayed is 2.5.

Coastal Water Temperatures

Place Temperature

Stations

Nearby Weather Stations

Station Location Temp. Windchill Dew Point Humidity Wind Precip. Elev Updated Type
                   

Watches & Warnings

There are currently no watches in effect.